»·PEaware :: N791JR KSBA-KOXR

N791JR :: KSBA-KOXR

FLIGHT INFORMATION

Flight Status: Arrived
Operator: Privately registered:
United States
More flights under this callsign
Pilot: Austin M. (7518)
Aircraft: CESSNA 172 SKYHAWK
(C172)
More flights by this aircraft type
Origin: KSBA Santa Barbara Mun
United States
Destination: KOXR Oxnard
United States
More flights between these airports :: More routes between these airports
Route: +
File this flight plan on PilotEdge
Remarks:
Altitude:
(Current/Filed)
0ft
Speed:
(Current/Filed)
0kts
Departed: 16-Apr-18 04:14 PM
Arrived: 16-Apr-18 04:56 PM
Distance/Time
Traveled:
34nm/0:42
Distance/Time
To Go:
Arrived

Flight Plot

Page will automatically refresh every two minutes.


Map Options




Map Legend


Flown Route
Filed Route
Departure Airport
Arrival Airport
Navaid (VOR, NDB)
Fix

Horizontal Profiles

Position Reports

Time Latitude Longitude Heading Altitude Ground
Speed
16-Apr-18 16:00 34.422743 -119.835707 327 15ft 0kts
16-Apr-18 16:01 34.422777 -119.835737 316 15ft 2kts
16-Apr-18 16:02 34.422812 -119.836289 216 15ft 3kts
16-Apr-18 16:03 34.422804 -119.836297 224 15ft 0kts
16-Apr-18 16:04 34.422804 -119.836297 224 15ft 0kts
16-Apr-18 16:05 34.422804 -119.836297 224 15ft 0kts
16-Apr-18 16:06 34.422804 -119.836297 224 15ft 0kts
16-Apr-18 16:07 34.422804 -119.836297 224 15ft 0kts
16-Apr-18 16:08 34.422791 -119.836318 235 15ft 1kts
16-Apr-18 16:09 34.424806 -119.837681 348 15ft 25kts
16-Apr-18 16:10 34.426894 -119.834671 28 15ft 8kts
16-Apr-18 16:11 34.427106 -119.834629 350 15ft 0kts
16-Apr-18 16:12 34.427914 -119.835573 268 15ft 14kts
16-Apr-18 16:13 34.427221 -119.852231 261 384ft 78kts
16-Apr-18 16:14 34.426229 -119.873612 263 1207ft 69kts
16-Apr-18 16:15 34.422107 -119.899617 259 1525ft 87kts
16-Apr-18 16:16 34.417009 -119.930295 259 1518ft 95kts
16-Apr-18 16:17 34.412534 -119.961586 261 1602ft 94kts
16-Apr-18 16:18 34.401645 -119.984357 174 1892ft 117kts
16-Apr-18 16:19 34.393148 -119.945697 99 2383ft 140kts
16-Apr-18 16:20 34.387239 -119.899120 96 2795ft 145kts
16-Apr-18 16:21 34.387115 -119.850431 92 3191ft 146kts
16-Apr-18 16:22 34.384793 -119.800775 92 3468ft 150kts
16-Apr-18 16:23 34.384322 -119.749264 98 3372ft 156kts
16-Apr-18 16:24 34.375617 -119.702002 114 3190ft 138kts
16-Apr-18 16:25 34.365330 -119.655694 94 2827ft 144kts
16-Apr-18 16:26 34.374516 -119.608599 84 2688ft 145kts
16-Apr-18 16:27 34.371271 -119.561201 75 2649ft 142kts
16-Apr-18 16:28 34.379731 -119.515009 71 2691ft 140kts
16-Apr-18 16:29 34.388864 -119.472787 71 3231ft 124kts
16-Apr-18 16:30 34.398471 -119.427951 73 2991ft 139kts
16-Apr-18 16:31 34.403918 -119.380117 83 2983ft 152kts
16-Apr-18 16:32 34.407382 -119.329935 88 2976ft 158kts
16-Apr-18 16:33 34.404848 -119.280255 149 2973ft 141kts
16-Apr-18 16:34 34.373428 -119.257027 160 2977ft 135kts
16-Apr-18 16:35 34.340333 -119.239916 178 2517ft 118kts
16-Apr-18 16:36 34.307369 -119.227293 181 1513ft 116kts
16-Apr-18 16:37 34.283661 -119.198763 111 1126ft 140kts
16-Apr-18 16:38 34.273464 -119.169433 137 1830ft 119kts
16-Apr-18 16:39 34.273464 -119.169433 137 1830ft 119kts
16-Apr-18 16:40 34.273464 -119.169433 137 1830ft 119kts
16-Apr-18 16:41 34.273464 -119.169433 137 1830ft 119kts
16-Apr-18 16:42 34.261033 -119.142660 29 2322ft 127kts
16-Apr-18 16:43 34.275244 -119.152000 248 2580ft 84kts
16-Apr-18 16:44 34.274992 -119.178638 271 2848ft 82kts
16-Apr-18 16:45 34.269397 -119.204521 214 3083ft 94kts
16-Apr-18 16:46 34.240109 -119.194455 158 2508ft 128kts
16-Apr-18 16:47 34.213931 -119.169728 168 1360ft 112kts
16-Apr-18 16:48 34.200818 -119.183260 264 407ft 62kts
16-Apr-18 16:49 34.200720 -119.198820 267 62ft 48kts
16-Apr-18 16:50 34.200917 -119.213087 263 258ft 63kts
16-Apr-18 16:51 34.188244 -119.221967 160 1072ft 110kts
16-Apr-18 16:52 34.187925 -119.181943 97 1209ft 102kts
16-Apr-18 16:53 34.197614 -119.165620 312 773ft 59kts
16-Apr-18 16:54 34.200556 -119.184153 271 346ft 73kts
16-Apr-18 16:55 34.200745 -119.205473 270 38ft 34kts
16-Apr-18 16:56 34.199958 -119.207170 214 38ft 0kts
16-Apr-18 16:57 34.199958 -119.207170 214 38ft 0kts
16-Apr-18 16:58 34.199958 -119.207170 214 38ft 0kts
16-Apr-18 16:59 34.199958 -119.207170 214 38ft 0kts
16-Apr-18 17:00 34.199958 -119.207170 214 38ft 0kts
16-Apr-18 17:01 34.199958 -119.207170 214 38ft 0kts
16-Apr-18 17:02 34.199790 -119.205856 93 38ft 20kts
16-Apr-18 17:03 34.198867 -119.201963 148 38ft 0kts

Navigation Log

Ident Type
Flight plan parsing failed, navigation log unavailable